Time;durP1;ratioP1;P1;durP2;ratioP2;P2;SDS_P1;SDS_P2;PMS_P1;PMS_P2;Temp;Humidity;BMP_temperature;BMP_pressure;BME280_temperature;BME280_humidity;BME280_pressure;Samples;Min_cycle;Max_cycle;Signal;HPM_P1;HPM_P2
2022/06/26 00:00:12;;;;;;;31.40;29.00;;;19.50;99.90;;;;;;5070101;28;20698;-50
2022/06/26 00:02:37;;;;;;;29.60;27.10;;;19.50;99.90;;;;;;5072149;28;20663;-52
2022/06/26 00:05:04;;;;;;;31.03;28.50;;;19.50;99.90;;;;;;5072185;28;20462;-51
2022/06/26 00:07:29;;;;;;;31.40;28.67;;;19.50;99.90;;;;;;5069957;28;20260;-53
2022/06/26 00:09:55;;;;;;;30.70;28.10;;;19.50;99.90;;;;;;5076118;28;20523;-52
2022/06/26 00:12:21;;;;;;;29.90;27.50;;;19.50;99.90;;;;;;5071116;28;20182;-50
2022/06/26 00:14:46;;;;;;;30.60;28.00;;;19.50;99.90;;;;;;5063000;28;20182;-50
2022/06/26 00:17:12;;;;;;;30.73;28.17;;;19.50;99.90;;;;;;5066116;28;20530;-49
2022/06/26 00:19:38;;;;;;;30.60;27.90;;;19.40;99.90;;;;;;5071964;28;20535;-52
2022/06/26 00:22:05;;;;;;;29.20;26.70;;;19.50;99.90;;;;;;5068583;28;20608;-51
2022/06/26 00:24:33;;;;;;;28.90;26.60;;;19.50;99.90;;;;;;5071914;28;20220;-52
2022/06/26 00:26:59;;;;;;;31.27;28.47;;;19.40;99.90;;;;;;5071372;28;20461;-52
2022/06/26 00:29:24;;;;;;;31.30;28.63;;;19.30;99.90;;;;;;5070062;28;21097;-52
2022/06/26 00:31:50;;;;;;;30.03;27.33;;;19.30;99.90;;;;;;5066659;28;20227;-51
2022/06/26 00:34:16;;;;;;;29.33;26.83;;;19.20;99.90;;;;;;5064318;28;20193;-53
2022/06/26 00:36:41;;;;;;;27.83;25.53;;;19.20;99.90;;;;;;5071730;28;20190;-56
2022/06/26 00:39:07;;;;;;;27.60;25.30;;;19.20;99.90;;;;;;5070071;28;20193;-51
2022/06/26 00:41:33;;;;;;;28.63;26.03;;;19.10;99.90;;;;;;5071383;28;20681;-49
2022/06/26 00:43:59;;;;;;;26.50;24.20;;;19.20;99.90;;;;;;5070807;28;20206;-50
2022/06/26 00:46:25;;;;;;;29.27;26.77;;;19.20;99.90;;;;;;5064349;28;20892;-55
2022/06/26 00:48:52;;;;;;;28.00;25.50;;;19.20;99.90;;;;;;5071824;28;20254;-52
2022/06/26 00:51:19;;;;;;;27.90;25.50;;;19.20;99.90;;;;;;5069425;28;20174;-51
2022/06/26 00:53:45;;;;;;;27.43;25.13;;;19.10;99.90;;;;;;5071467;28;20416;-48
2022/06/26 00:56:10;;;;;;;27.23;24.83;;;19.10;99.90;;;;;;5071083;28;20420;-52
2022/06/26 00:58:36;;;;;;;27.97;25.40;;;19.00;99.90;;;;;;5069385;28;22033;-54
2022/06/26 01:01:02;;;;;;;26.83;24.53;;;19.00;99.90;;;;;;5071121;28;20198;-51
2022/06/26 01:03:27;;;;;;;27.33;25.03;;;18.90;99.90;;;;;;5069816;28;20624;-52
2022/06/26 01:05:54;;;;;;;27.83;25.33;;;18.90;99.90;;;;;;5070569;28;20231;-50
2022/06/26 01:08:19;;;;;;;26.67;24.37;;;18.90;99.90;;;;;;5066183;28;20198;-53
2022/06/26 01:10:48;;;;;;;27.63;25.13;;;18.90;99.90;;;;;;5069427;28;20432;-50
2022/06/26 01:13:15;;;;;;;27.07;24.77;;;18.90;99.90;;;;;;5068679;28;20515;-53
2022/06/26 01:15:41;;;;;;;26.63;24.23;;;18.90;99.90;;;;;;5068268;28;20428;-50
2022/06/26 01:18:07;;;;;;;26.50;24.17;;;18.90;99.90;;;;;;5070311;28;20416;-52
2022/06/26 01:20:33;;;;;;;27.53;25.10;;;18.90;99.90;;;;;;5066893;28;20213;-50
2022/06/26 01:23:04;;;;;;;25.73;23.57;;;18.90;99.90;;;;;;5054965;28;20889;-49
2022/06/26 01:25:59;;;;;;;27.13;24.73;;;18.80;99.90;;;;;;5047353;28;20514;-52
2022/06/26 01:28:24;;;;;;;26.33;24.13;;;18.80;99.90;;;;;;5053302;28;20428;-54
2022/06/26 01:30:50;;;;;;;26.73;24.33;;;18.80;99.90;;;;;;5066459;28;20431;-50
2022/06/26 01:33:16;;;;;;;26.73;24.33;;;18.80;99.90;;;;;;5067609;28;20193;-48
2022/06/26 01:35:41;;;;;;;27.80;25.30;;;18.80;99.90;;;;;;5069750;28;20190;-52
2022/06/26 01:38:23;;;;;;;27.93;25.13;;;18.70;99.90;;;;;;5070405;28;20170;-50
2022/06/26 01:40:54;;;;;;;26.20;23.80;;;18.70;99.90;;;;;;5070212;28;20162;-49
2022/06/26 01:43:22;;;;;;;27.00;24.47;;;18.70;99.90;;;;;;5068557;28;20464;-50
2022/06/26 01:45:52;;;;;;;29.70;26.97;;;18.80;99.90;;;;;;5070176;28;20427;-50
2022/06/26 01:48:19;;;;;;;27.17;24.77;;;18.80;99.90;;;;;;5066615;28;20424;-52
2022/06/26 01:50:45;;;;;;;28.07;25.57;;;18.70;99.90;;;;;;5070268;28;20404;-53
2022/06/26 01:53:12;;;;;;;28.83;25.80;;;18.70;99.90;;;;;;5068599;28;20469;-53
2022/06/26 01:55:39;;;;;;;26.87;24.53;;;18.80;99.90;;;;;;5069842;28;20431;-55
2022/06/26 01:58:05;;;;;;;28.27;25.73;;;18.80;99.90;;;;;;5069577;28;20443;-54
2022/06/26 02:00:32;;;;;;;27.00;24.60;;;18.70;99.90;;;;;;5068400;28;20476;-51
2022/06/26 02:02:59;;;;;;;27.03;24.37;;;18.80;99.90;;;;;;5069785;28;20460;-51
2022/06/26 02:05:24;;;;;;;28.13;25.43;;;18.70;99.90;;;;;;5050884;28;20462;-53
2022/06/26 02:07:50;;;;;;;27.93;25.53;;;18.70;99.90;;;;;;5065561;28;20482;-53
2022/06/26 02:15:48;;;;;;;26.60;24.20;;;18.70;99.90;;;;;;5069463;28;20422;-53
2022/06/26 02:18:13;;;;;;;28.70;26.10;;;18.70;99.90;;;;;;5068917;28;20817;-54
2022/06/26 02:20:39;;;;;;;27.67;25.07;;;18.60;99.90;;;;;;5069779;28;20289;-53
2022/06/26 02:23:05;;;;;;;27.23;24.73;;;18.60;99.90;;;;;;5069489;28;20199;-53
2022/06/26 02:25:30;;;;;;;29.07;26.20;;;18.60;99.90;;;;;;5068329;28;20502;-49
2022/06/26 02:27:56;;;;;;;27.60;25.00;;;18.60;99.90;;;;;;5067730;28;20240;-52
2022/06/26 02:30:22;;;;;;;28.37;25.77;;;18.70;99.90;;;;;;5068846;28;20208;-50
2022/06/26 02:32:47;;;;;;;28.67;25.87;;;18.60;99.90;;;;;;5063774;28;20207;-51
2022/06/26 02:35:13;;;;;;;26.43;23.80;;;18.60;99.90;;;;;;5069083;28;20570;-48
2022/06/26 02:37:39;;;;;;;30.20;27.40;;;18.60;99.90;;;;;;5069625;28;20184;-49
2022/06/26 02:40:05;;;;;;;29.90;26.90;;;18.50;99.90;;;;;;5069621;28;20213;-49
2022/06/26 02:42:31;;;;;;;30.03;27.13;;;18.50;99.90;;;;;;5068630;28;20205;-51
2022/06/26 02:44:56;;;;;;;29.67;26.90;;;18.50;99.90;;;;;;5069026;28;20435;-54
2022/06/26 02:47:22;;;;;;;30.00;27.10;;;18.50;99.90;;;;;;5069165;28;20408;-51
2022/06/26 02:49:47;;;;;;;31.37;28.30;;;18.60;99.90;;;;;;5065648;28;20504;-55
2022/06/26 02:52:13;;;;;;;28.07;25.43;;;18.60;99.90;;;;;;5069051;28;20174;-52
2022/06/26 02:54:38;;;;;;;28.50;25.80;;;18.50;99.90;;;;;;5068622;28;20213;-49
2022/06/26 02:57:04;;;;;;;30.20;27.20;;;18.50;99.90;;;;;;5069314;28;20177;-48
2022/06/26 02:59:30;;;;;;;30.43;27.50;;;18.50;99.90;;;;;;5069065;28;20680;-52
2022/06/26 03:01:57;;;;;;;31.40;28.30;;;18.50;99.90;;;;;;5064521;28;20182;-52
2022/06/26 03:04:23;;;;;;;30.33;27.33;;;18.50;99.90;;;;;;5031306;28;20269;-53
2022/06/26 03:06:49;;;;;;;31.93;28.63;;;18.50;99.90;;;;;;5050692;28;20546;-50
2022/06/26 03:09:14;;;;;;;32.23;29.03;;;18.50;99.90;;;;;;5062091;28;20260;-51
2022/06/26 03:11:41;;;;;;;31.73;28.73;;;18.50;99.90;;;;;;5065570;28;20234;-54
2022/06/26 03:14:09;;;;;;;31.30;28.20;;;18.60;99.90;;;;;;5067688;28;20181;-51
2022/06/26 03:16:35;;;;;;;31.57;28.30;;;18.50;99.90;;;;;;5067582;28;20435;-47
2022/06/26 03:19:01;;;;;;;32.73;29.23;;;18.50;99.90;;;;;;5068917;28;20518;-51
2022/06/26 03:21:27;;;;;;;31.10;28.00;;;18.50;99.90;;;;;;5068105;28;20443;-53
2022/06/26 03:24:02;;;;;;;30.97;27.97;;;18.50;99.90;;;;;;5068954;28;20209;-56
2022/06/26 03:26:33;;;;;;;30.60;27.70;;;18.60;99.90;;;;;;5068917;28;20196;-52
2022/06/26 03:28:59;;;;;;;32.70;29.50;;;18.60;99.90;;;;;;5068234;28;20905;-48
2022/06/26 03:31:25;;;;;;;29.37;26.43;;;18.60;99.90;;;;;;5062916;28;20479;-48
2022/06/26 03:33:51;;;;;;;30.87;27.93;;;18.60;99.90;;;;;;5068862;28;20481;-52
2022/06/26 03:36:17;;;;;;;29.83;26.93;;;18.60;99.90;;;;;;5071156;28;20439;-52
2022/06/26 03:38:43;;;;;;;31.30;28.30;;;18.70;99.90;;;;;;5072495;28;20415;-49
2022/06/26 03:41:10;;;;;;;29.87;27.07;;;18.70;99.90;;;;;;5065018;28;20428;-51
2022/06/26 03:43:35;;;;;;;31.97;28.90;;;18.70;99.90;;;;;;5069662;28;20937;-53
2022/06/26 03:46:01;;;;;;;30.53;27.47;;;18.80;99.90;;;;;;5059719;28;20575;-55
2022/06/26 03:48:27;;;;;;;30.30;27.50;;;18.70;99.90;;;;;;5076242;28;20177;-52
2022/06/26 03:50:53;;;;;;;30.40;27.20;;;18.70;99.90;;;;;;5059791;28;20177;-52
2022/06/26 03:53:19;;;;;;;30.70;27.57;;;18.70;99.90;;;;;;5054357;28;20516;-53
2022/06/26 03:55:44;;;;;;;30.20;27.30;;;18.80;99.90;;;;;;5078149;28;20193;-52
2022/06/26 03:58:10;;;;;;;31.50;28.50;;;18.70;99.90;;;;;;5072267;28;20427;-52
2022/06/26 04:00:36;;;;;;;31.93;28.63;;;18.70;99.90;;;;;;5072106;28;20233;-53
2022/06/26 04:03:03;;;;;;;31.57;28.47;;;18.70;99.90;;;;;;5071217;28;20210;-54
2022/06/26 04:05:29;;;;;;;31.90;28.70;;;18.70;99.90;;;;;;5070289;28;20435;-50
2022/06/26 04:07:54;;;;;;;32.93;29.50;;;18.80;99.90;;;;;;5066323;28;20416;-51
2022/06/26 04:10:20;;;;;;;32.40;29.20;;;18.70;99.90;;;;;;5071324;28;20648;-53
2022/06/26 04:12:45;;;;;;;33.90;30.70;;;18.80;99.90;;;;;;5072012;28;20549;-53
2022/06/26 04:15:11;;;;;;;32.53;29.50;;;18.80;99.90;;;;;;5058594;28;20234;-52
2022/06/26 04:17:37;;;;;;;33.00;30.00;;;18.90;99.90;;;;;;5071493;28;20787;-52
2022/06/26 04:20:03;;;;;;;32.13;29.07;;;18.90;99.90;;;;;;5068643;28;20185;-52
2022/06/26 04:22:28;;;;;;;31.80;28.80;;;19.00;99.90;;;;;;5068107;28;20220;-50
2022/06/26 04:24:54;;;;;;;32.10;29.00;;;19.00;99.90;;;;;;5053973;28;20436;-55
2022/06/26 04:27:20;;;;;;;30.27;27.27;;;19.10;99.90;;;;;;5066850;28;20285;-54
2022/06/26 04:29:46;;;;;;;32.20;29.10;;;19.10;99.90;;;;;;5071895;28;20178;-52
2022/06/26 04:32:12;;;;;;;30.60;27.60;;;19.10;99.90;;;;;;5064980;28;20197;-49
2022/06/26 04:34:37;;;;;;;31.20;28.10;;;19.20;99.90;;;;;;5071568;28;20412;-51
2022/06/26 04:37:04;;;;;;;33.90;29.80;;;19.20;99.90;;;;;;5070697;28;20201;-52
2022/06/26 04:39:30;;;;;;;31.23;28.17;;;19.30;99.90;;;;;;5071182;28;20178;-52
2022/06/26 04:41:56;;;;;;;34.07;30.53;;;19.30;99.90;;;;;;5070673;28;20423;-53
2022/06/26 04:44:21;;;;;;;31.80;28.80;;;19.30;99.90;;;;;;5071082;28;20443;-48
2022/06/26 04:46:48;;;;;;;32.23;29.23;;;19.40;99.90;;;;;;5070697;28;20190;-52
2022/06/26 04:49:14;;;;;;;33.13;29.80;;;19.40;99.90;;;;;;5066868;28;20182;-52
2022/06/26 04:51:40;;;;;;;32.00;29.03;;;19.50;99.90;;;;;;5070706;28;20444;-48
2022/06/26 04:54:08;;;;;;;33.03;29.60;;;19.60;99.90;;;;;;5070922;28;20420;-51
2022/06/26 04:56:34;;;;;;;31.20;28.23;;;19.70;99.90;;;;;;5070554;28;20462;-52
2022/06/26 04:59:00;;;;;;;30.93;28.20;;;19.80;99.90;;;;;;5070711;28;20472;-53
2022/06/26 05:01:27;;;;;;;31.70;28.50;;;19.80;99.90;;;;;;5069222;28;20944;-56
2022/06/26 05:03:53;;;;;;;30.20;27.33;;;20.00;99.90;;;;;;5070882;28;20455;-53
2022/06/26 05:06:19;;;;;;;29.40;26.70;;;20.10;99.90;;;;;;5066060;28;20934;-54
2022/06/26 05:08:45;;;;;;;29.00;26.40;;;20.20;99.90;;;;;;5070580;28;20497;-52
2022/06/26 05:11:11;;;;;;;31.27;28.37;;;20.20;99.90;;;;;;5070486;28;20192;-52
2022/06/26 05:13:37;;;;;;;29.77;27.13;;;20.30;99.90;;;;;;5070714;28;20769;-49
2022/06/26 05:16:03;;;;;;;29.03;24.93;;;20.40;99.90;;;;;;5069656;28;20424;-54
2022/06/26 05:18:28;;;;;;;28.03;25.40;;;20.50;99.90;;;;;;5070933;28;20261;-50
2022/06/26 05:20:54;;;;;;;28.13;25.53;;;20.60;99.90;;;;;;5069905;28;20664;-53
2022/06/26 05:23:20;;;;;;;26.87;24.20;;;20.60;99.90;;;;;;5070791;28;20673;-55
2022/06/26 05:25:46;;;;;;;27.63;25.13;;;20.80;99.90;;;;;;5069281;28;20499;-52
2022/06/26 05:28:11;;;;;;;26.60;24.30;;;20.80;99.90;;;;;;5069575;28;20187;-50
2022/06/26 05:30:37;;;;;;;26.83;24.30;;;20.90;99.90;;;;;;5065977;28;20190;-55
2022/06/26 05:33:03;;;;;;;26.07;23.50;;;21.00;99.90;;;;;;5068675;28;20213;-51
2022/06/26 05:35:29;;;;;;;25.57;23.33;;;21.10;99.90;;;;;;5069570;28;20180;-54
2022/06/26 05:37:55;;;;;;;26.57;24.07;;;21.10;99.90;;;;;;5057378;28;20270;-53
2022/06/26 05:40:21;;;;;;;26.67;24.27;;;21.10;99.90;;;;;;5068764;28;20420;-50
2022/06/26 05:42:47;;;;;;;26.23;23.80;;;21.20;99.90;;;;;;5067285;28;20459;-53
2022/06/26 05:45:12;;;;;;;27.10;24.70;;;21.20;99.90;;;;;;5057317;28;20580;-53
2022/06/26 05:47:38;;;;;;;25.30;23.03;;;21.20;99.90;;;;;;5050403;28;20168;-55
2022/06/26 05:50:05;;;;;;;24.87;22.67;;;21.30;99.90;;;;;;5054779;28;20186;-50
2022/06/26 05:52:31;;;;;;;24.67;22.43;;;21.40;99.90;;;;;;5068263;28;20275;-50
2022/06/26 05:54:56;;;;;;;24.47;22.37;;;21.40;99.90;;;;;;5069254;28;20526;-53
2022/06/26 05:57:23;;;;;;;23.87;21.87;;;21.50;99.90;;;;;;5069314;28;20177;-51
2022/06/26 05:59:49;;;;;;;24.70;22.63;;;21.60;99.90;;;;;;5067639;28;20218;-52
2022/06/26 06:02:15;;;;;;;23.60;21.50;;;21.70;99.90;;;;;;5069026;28;20782;-50
2022/06/26 06:04:40;;;;;;;23.67;21.70;;;21.70;99.90;;;;;;5065014;28;20429;-52
2022/06/26 06:07:06;;;;;;;22.80;20.80;;;21.80;99.90;;;;;;5067673;28;20179;-49
2022/06/26 06:09:32;;;;;;;23.60;21.80;;;22.00;99.90;;;;;;5067848;28;20213;-53
2022/06/26 06:11:58;;;;;;;23.87;21.87;;;22.00;99.90;;;;;;5068076;28;20229;-51
2022/06/26 06:14:24;;;;;;;23.40;21.40;;;22.00;99.90;;;;;;5066657;28;20419;-52
2022/06/26 06:16:49;;;;;;;22.07;20.30;;;22.10;99.90;;;;;;5067365;28;20238;-53
2022/06/26 06:19:15;;;;;;;21.60;19.90;;;22.20;99.90;;;;;;5067541;28;20422;-55
2022/06/26 06:21:41;;;;;;;20.80;19.00;;;22.30;99.90;;;;;;5066938;28;20184;-50
2022/06/26 06:24:07;;;;;;;20.30;18.70;;;22.50;99.90;;;;;;5073974;28;20586;-51
2022/06/26 06:26:33;;;;;;;20.30;18.50;;;22.70;99.90;;;;;;5088937;28;20422;-53
2022/06/26 06:28:58;;;;;;;20.60;19.00;;;22.80;99.90;;;;;;5066760;28;20424;-54
2022/06/26 06:31:24;;;;;;;19.87;18.37;;;23.00;99.90;;;;;;5067330;28;20184;-53
2022/06/26 06:33:49;;;;;;;20.23;18.60;;;23.20;99.90;;;;;;5066803;28;20198;-52
2022/06/26 06:36:15;;;;;;;19.47;17.93;;;23.20;99.90;;;;;;5067640;28;20196;-52
2022/06/26 06:38:41;;;;;;;20.67;19.00;;;23.30;99.90;;;;;;5067175;28;20359;-50
2022/06/26 06:41:07;;;;;;;18.33;16.83;;;23.30;99.90;;;;;;5064077;28;20542;-53
2022/06/26 06:43:33;;;;;;;18.47;17.07;;;23.50;99.90;;;;;;5064466;28;20227;-54
2022/06/26 06:45:59;;;;;;;19.67;18.17;;;23.50;99.90;;;;;;5057532;28;20424;-53
2022/06/26 06:48:25;;;;;;;17.30;16.00;;;23.60;99.90;;;;;;5064791;28;20424;-51
2022/06/26 06:50:52;;;;;;;17.70;16.10;;;23.60;99.90;;;;;;5066794;28;20846;-51
2022/06/26 06:53:19;;;;;;;18.30;16.90;;;23.60;99.90;;;;;;5067699;28;20444;-50
2022/06/26 06:55:44;;;;;;;16.40;15.07;;;23.70;99.90;;;;;;5065207;28;20436;-49
2022/06/26 06:58:10;;;;;;;17.37;15.87;;;23.80;99.90;;;;;;5057285;28;20903;-49
2022/06/26 07:00:36;;;;;;;17.23;15.93;;;23.90;99.90;;;;;;5050305;28;20245;-55
2022/06/26 07:03:03;;;;;;;17.73;16.30;;;24.10;99.90;;;;;;5062932;28;20462;-48
2022/06/26 07:05:29;;;;;;;16.17;14.97;;;24.20;99.90;;;;;;5064189;28;20199;-51
2022/06/26 07:07:56;;;;;;;16.47;15.27;;;24.30;99.90;;;;;;5049247;28;20506;-52
2022/06/26 07:10:21;;;;;;;16.63;15.43;;;24.40;99.90;;;;;;5070461;28;20542;-51
2022/06/26 07:12:54;;;;;;;16.47;15.27;;;24.50;99.90;;;;;;5070842;28;20498;-52
2022/06/26 07:15:20;;;;;;;16.47;15.17;;;24.60;99.90;;;;;;5080574;28;20183;-54
2022/06/26 07:17:46;;;;;;;16.30;15.10;;;24.70;99.90;;;;;;5072159;28;20433;-55
2022/06/26 07:20:12;;;;;;;15.87;14.70;;;24.90;99.90;;;;;;5072045;28;20776;-55
2022/06/26 07:22:37;;;;;;;16.00;14.90;;;25.00;99.90;;;;;;5068720;28;20206;-51
2022/06/26 07:25:04;;;;;;;15.03;13.93;;;25.30;99.90;;;;;;5073413;28;20627;-54
2022/06/26 07:27:30;;;;;;;14.63;13.57;;;25.40;99.90;;;;;;5053958;28;20196;-53
2022/06/26 07:29:55;;;;;;;15.00;13.90;;;25.60;99.90;;;;;;5073924;28;20971;-51
2022/06/26 07:32:21;;;;;;;14.77;13.67;;;25.70;99.90;;;;;;5073607;28;20559;-48
2022/06/26 07:34:46;;;;;;;13.33;12.43;;;25.90;99.90;;;;;;5073064;28;20192;-52
2022/06/26 07:37:12;;;;;;;13.50;12.53;;;26.30;99.90;;;;;;5073148;28;20549;-53
2022/06/26 07:39:38;;;;;;;14.70;13.60;;;26.40;99.90;;;;;;5077967;28;20185;-56
2022/06/26 07:42:05;;;;;;;14.43;13.43;;;26.60;99.50;;;;;;5054562;28;20732;-55
2022/06/26 07:44:31;;;;;;;14.30;13.30;;;26.70;99.50;;;;;;5068684;28;20431;-55
2022/06/26 07:46:57;;;;;;;13.20;12.30;;;27.00;99.90;;;;;;5069648;28;20677;-54
2022/06/26 07:49:22;;;;;;;13.50;12.70;;;27.40;97.00;;;;;;5069834;28;20460;-54
2022/06/26 07:51:48;;;;;;;13.47;12.43;;;27.70;94.50;;;;;;5070493;28;20478;-52
2022/06/26 07:54:14;;;;;;;12.40;11.60;;;28.00;93.00;;;;;;5077232;28;20204;-53
2022/06/26 07:56:40;;;;;;;12.60;11.77;;;28.30;90.70;;;;;;5078469;28;20190;-55
2022/06/26 07:59:07;;;;;;;12.30;11.57;;;28.40;90.80;;;;;;5069239;28;20550;-56
2022/06/26 08:01:33;;;;;;;11.50;10.80;;;28.40;90.50;;;;;;5049172;28;20221;-56
2022/06/26 08:03:59;;;;;;;11.60;10.67;;;28.30;89.30;;;;;;5067328;28;20453;-51
2022/06/26 08:06:25;;;;;;;12.63;11.73;;;28.20;86.20;;;;;;5070095;28;20174;-52
2022/06/26 08:08:51;;;;;;;12.07;11.30;;;28.20;87.70;;;;;;5070063;28;20439;-54
2022/06/26 08:11:16;;;;;;;11.40;10.70;;;28.10;88.20;;;;;;5071079;28;20884;-50
2022/06/26 08:13:42;;;;;;;11.57;10.97;;;28.10;88.90;;;;;;5069411;28;20239;-52
2022/06/26 08:16:08;;;;;;;12.00;11.20;;;28.00;88.80;;;;;;5069189;28;20239;-54
2022/06/26 08:18:34;;;;;;;12.20;11.43;;;28.00;86.90;;;;;;5070849;28;20193;-55
2022/06/26 08:22:00;;;;;;;11.43;10.73;;;28.00;86.80;;;;;;5052185;28;20450;-54
2022/06/26 08:23:45;;;;;;;11.10;10.40;;;28.00;87.40;;;;;;5065674;28;20205;-55
2022/06/26 08:26:10;;;;;;;11.53;10.73;;;28.10;85.50;;;;;;5070710;28;20419;-56
2022/06/26 08:28:37;;;;;;;12.20;11.50;;;28.20;85.50;;;;;;5068605;28;20197;-55
2022/06/26 08:31:03;;;;;;;12.43;11.63;;;28.30;86.90;;;;;;5070609;28;20185;-54
2022/06/26 08:33:28;;;;;;;12.20;11.50;;;28.40;87.30;;;;;;5069637;28;20420;-50
2022/06/26 08:35:54;;;;;;;11.07;10.47;;;28.60;83.60;;;;;;5070851;28;20244;-56
2022/06/26 08:38:19;;;;;;;12.70;11.60;;;28.40;81.60;;;;;;5069745;28;20174;-54
2022/06/26 08:40:45;;;;;;;12.43;11.73;;;28.50;82.40;;;;;;5069855;28;20663;-56
2022/06/26 08:43:13;;;;;;;12.20;11.30;;;28.70;80.40;;;;;;5069563;28;20202;-53
2022/06/26 08:45:41;;;;;;;11.50;10.83;;;28.80;78.70;;;;;;5066187;28;20295;-54
2022/06/26 08:48:09;;;;;;;10.80;10.20;;;28.80;79.50;;;;;;5065660;28;20915;-54
2022/06/26 08:50:34;;;;;;;11.30;10.57;;;28.90;80.60;;;;;;5070510;28;20419;-54
2022/06/26 08:53:01;;;;;;;11.50;10.80;;;29.00;78.50;;;;;;5068062;28;20420;-55
2022/06/26 08:55:28;;;;;;;11.37;10.67;;;29.10;77.70;;;;;;5070227;28;20194;-55
2022/06/26 08:57:53;;;;;;;11.10;10.40;;;29.30;76.60;;;;;;5067692;28;20522;-53
2022/06/26 09:00:19;;;;;;;11.00;10.20;;;29.40;75.00;;;;;;5070241;28;20547;-54
2022/06/26 09:02:46;;;;;;;11.30;10.20;;;29.50;74.40;;;;;;5068624;28;20605;-55
2022/06/26 09:05:12;;;;;;;10.83;10.17;;;29.60;70.80;;;;;;5066004;28;20183;-56
2022/06/26 09:08:04;;;;;;;10.63;10.03;;;29.60;68.20;;;;;;5064954;28;20774;-55
2022/06/26 09:10:37;;;;;;;10.00;9.50;;;29.80;65.50;;;;;;5062737;28;20872;-57
2022/06/26 09:13:03;;;;;;;10.70;10.10;;;29.80;66.20;;;;;;5048535;28;20478;-50
2022/06/26 09:15:29;;;;;;;10.73;10.03;;;29.70;65.80;;;;;;5069406;28;20890;-54
2022/06/26 09:18:03;;;;;;;10.90;10.20;;;29.80;65.70;;;;;;5066152;28;20625;-56
2022/06/26 09:20:31;;;;;;;10.70;10.00;;;29.80;64.80;;;;;;5069084;28;20182;-55
2022/06/26 09:22:58;;;;;;;10.20;9.60;;;29.90;63.90;;;;;;5068223;28;20531;-54
2022/06/26 09:25:39;;;;;;;10.27;9.63;;;30.00;62.60;;;;;;5068648;28;20411;-54
2022/06/26 09:28:09;;;;;;;9.67;9.17;;;30.00;61.70;;;;;;5067513;28;20411;-51
2022/06/26 09:30:51;;;;;;;10.53;9.83;;;30.10;61.90;;;;;;5068334;28;20476;-56
2022/06/26 09:33:22;;;;;;;9.43;8.90;;;30.10;63.20;;;;;;5068030;28;20516;-53
2022/06/26 09:35:48;;;;;;;8.60;8.10;;;30.30;59.30;;;;;;5069031;28;20415;-56
2022/06/26 09:38:18;;;;;;;7.27;6.87;;;30.40;58.50;;;;;;5067882;28;20450;-56
2022/06/26 09:40:53;;;;;;;8.13;7.67;;;30.60;57.80;;;;;;5082456;28;20186;-55
2022/06/26 09:43:37;;;;;;;9.07;8.47;;;30.90;57.50;;;;;;5067565;28;20497;-56
2022/06/26 09:46:05;;;;;;;8.10;7.70;;;31.20;56.20;;;;;;5068209;28;20438;-54
2022/06/26 09:48:32;;;;;;;8.90;8.40;;;31.40;55.20;;;;;;5068608;28;21299;-56
2022/06/26 09:50:58;;;;;;;9.60;9.00;;;31.40;56.00;;;;;;5067962;28;20455;-53
2022/06/26 09:53:25;;;;;;;9.40;8.70;;;31.70;54.70;;;;;;5068216;28;20423;-54
2022/06/26 09:55:53;;;;;;;9.53;8.73;;;31.80;55.30;;;;;;5067961;28;20412;-54
2022/06/26 09:58:19;;;;;;;9.37;8.87;;;32.10;53.20;;;;;;5066530;28;20432;-57
2022/06/26 10:06:26;;;;;;;9.13;8.63;;;32.60;50.00;;;;;;5068281;28;20516;-56
2022/06/26 10:08:57;;;;;;;8.80;8.30;;;32.70;49.00;;;;;;5068594;28;20404;-50
2022/06/26 10:11:30;;;;;;;8.63;8.23;;;32.90;47.70;;;;;;5068503;28;20400;-52
2022/06/26 10:14:11;;;;;;;8.93;8.50;;;32.90;47.00;;;;;;5050043;28;20813;-54
2022/06/26 10:16:52;;;;;;;8.23;7.83;;;32.90;46.70;;;;;;5067920;28;20948;-55
2022/06/26 10:19:28;;;;;;;9.10;8.60;;;32.90;46.60;;;;;;5075956;28;20514;-56
2022/06/26 10:21:54;;;;;;;10.17;9.57;;;33.00;45.30;;;;;;5073115;28;20982;-54
2022/06/26 10:24:20;;;;;;;9.57;9.07;;;33.10;46.80;;;;;;5070524;28;20565;-56
2022/06/26 10:26:57;;;;;;;9.37;8.70;;;33.20;47.00;;;;;;5074652;28;20420;-54
2022/06/26 10:30:11;;;;;;;8.00;7.60;;;33.30;45.10;;;;;;5070317;28;20200;-50
2022/06/26 10:32:37;;;;;;;7.90;7.50;;;33.30;44.40;;;;;;5059532;28;20442;-52
2022/06/26 10:35:04;;;;;;;9.27;8.57;;;33.20;43.00;;;;;;5068002;28;20408;-57
2022/06/26 10:37:47;;;;;;;8.70;8.30;;;33.20;43.10;;;;;;5061443;28;20759;-54
2022/06/26 10:42:52;;;;;;;8.80;8.27;;;33.30;43.40;;;;;;5061633;28;20435;-53
2022/06/26 10:43:06;;;;;;;8.40;8.00;;;33.60;42.50;;;;;;5065724;28;20463;-55
2022/06/26 10:45:36;;;;;;;8.80;8.33;;;33.70;43.40;;;;;;5054855;28;20474;-55
2022/06/26 10:48:06;;;;;;;10.23;8.80;;;34.00;41.40;;;;;;5049363;28;20423;-56
2022/06/26 10:50:41;;;;;;;8.70;8.10;;;34.30;42.10;;;;;;5074055;28;20415;-53
2022/06/26 10:53:36;;;;;;;8.00;7.50;;;34.60;38.00;;;;;;5064288;28;20538;-57
2022/06/26 10:56:05;;;;;;;8.37;7.87;;;34.80;38.20;;;;;;5058300;28;20434;-53
2022/06/26 10:58:37;;;;;;;7.80;7.40;;;34.80;36.50;;;;;;5048905;28;20526;-51
2022/06/26 11:01:07;;;;;;;8.67;8.27;;;34.80;38.00;;;;;;5067788;28;20424;-55
2022/06/26 11:03:34;;;;;;;8.93;8.43;;;34.90;37.10;;;;;;5068695;28;20463;-56
2022/06/26 11:06:02;;;;;;;8.53;8.00;;;34.90;38.90;;;;;;5067174;28;20436;-55
2022/06/26 11:08:31;;;;;;;9.20;8.70;;;35.10;37.20;;;;;;5068891;28;20918;-56
2022/06/26 11:11:15;;;;;;;8.40;7.90;;;35.10;37.90;;;;;;5068362;28;20416;-52
2022/06/26 11:13:55;;;;;;;9.37;8.67;;;35.20;38.00;;;;;;5067088;28;20818;-54
2022/06/26 11:16:33;;;;;;;9.50;8.80;;;35.30;36.50;;;;;;5068264;28;20416;-52
2022/06/26 11:19:03;;;;;;;10.37;9.77;;;35.00;34.90;;;;;;5067888;28;20424;-54
2022/06/26 11:21:29;;;;;;;9.23;8.70;;;34.80;38.10;;;;;;5068752;28;20449;-52
2022/06/26 11:23:55;;;;;;;10.03;9.37;;;34.70;38.30;;;;;;5068094;28;20550;-51
2022/06/26 11:26:22;;;;;;;10.20;9.60;;;34.60;38.80;;;;;;5068519;28;20487;-54
2022/06/26 11:29:00;;;;;;;10.13;9.53;;;34.60;38.70;;;;;;5068772;28;20412;-55
2022/06/26 11:31:29;;;;;;;9.37;8.87;;;34.70;38.20;;;;;;5068090;28;20846;-56
2022/06/26 11:34:06;;;;;;;10.77;10.00;;;34.70;37.40;;;;;;5068418;28;20408;-56
2022/06/26 11:36:31;;;;;;;9.70;9.20;;;34.50;38.40;;;;;;5067694;28;20420;-54
2022/06/26 11:38:57;;;;;;;9.90;9.30;;;34.20;37.70;;;;;;5068634;28;20492;-56
2022/06/26 11:41:24;;;;;;;9.67;8.97;;;34.30;37.20;;;;;;5067723;28;20551;-53
2022/06/26 11:43:53;;;;;;;9.67;9.07;;;34.30;37.80;;;;;;5069533;28;20216;-51
2022/06/26 11:46:19;;;;;;;10.33;9.83;;;34.20;38.50;;;;;;5070587;28;20415;-50
2022/06/26 11:48:46;;;;;;;11.00;10.30;;;34.30;37.50;;;;;;5068399;28;20420;-53
2022/06/26 11:51:13;;;;;;;11.27;10.67;;;34.10;37.50;;;;;;5068443;28;20918;-55
2022/06/26 11:53:44;;;;;;;11.77;11.17;;;33.60;39.10;;;;;;5068532;28;20456;-55
2022/06/26 11:56:11;;;;;;;13.17;12.47;;;33.50;40.70;;;;;;5069255;28;20599;-52
2022/06/26 11:58:37;;;;;;;11.60;10.90;;;33.40;41.50;;;;;;5062662;28;20420;-54
2022/06/26 12:01:05;;;;;;;12.73;11.93;;;33.40;42.10;;;;;;5072240;28;20419;-55
2022/06/26 12:03:30;;;;;;;12.10;11.40;;;33.50;41.90;;;;;;5071268;28;20209;-53
2022/06/26 12:05:56;;;;;;;13.03;12.33;;;33.40;41.40;;;;;;5072115;28;20600;-53
2022/06/26 12:08:22;;;;;;;13.03;12.20;;;33.00;42.50;;;;;;5064297;28;20538;-54
2022/06/26 12:10:50;;;;;;;13.10;12.40;;;32.80;43.50;;;;;;5071277;28;20182;-51
2022/06/26 12:13:29;;;;;;;13.00;12.30;;;32.90;45.00;;;;;;5071398;28;20189;-53
2022/06/26 12:16:08;;;;;;;12.57;11.87;;;33.10;43.90;;;;;;5070968;28;20439;-55
2022/06/26 12:18:35;;;;;;;11.50;10.80;;;33.40;42.60;;;;;;5071764;28;20412;-54
2022/06/26 12:21:02;;;;;;;12.40;11.60;;;33.30;42.80;;;;;;5071079;28;20448;-54
2022/06/26 12:23:34;;;;;;;12.80;12.10;;;33.60;41.10;;;;;;5070731;28;21035;-57
2022/06/26 12:26:10;;;;;;;12.60;11.70;;;33.60;41.10;;;;;;5071897;28;20416;-54
2022/06/26 12:28:58;;;;;;;12.23;11.50;;;33.30;41.90;;;;;;5062566;28;20446;-54
2022/06/26 12:31:24;;;;;;;11.73;11.13;;;33.40;42.40;;;;;;5070691;28;20415;-54
2022/06/26 12:33:50;;;;;;;11.60;10.90;;;33.40;40.60;;;;;;5071480;28;20422;-53
2022/06/26 12:36:17;;;;;;;12.40;11.70;;;33.60;40.10;;;;;;5070571;28;20181;-52
2022/06/26 12:38:44;;;;;;;11.63;10.93;;;33.80;40.10;;;;;;5071311;28;20185;-53
2022/06/26 12:41:16;;;;;;;10.50;9.90;;;34.00;39.00;;;;;;5070555;28;20921;-55
2022/06/26 12:43:53;;;;;;;12.03;11.27;;;33.90;38.60;;;;;;5063701;28;20504;-55